M I D A S
Marine Information and Data Acquisition System
Tripno 310 of the Zeeleeuw from 2002-08-26 06:38:59 to 2002-08-26 12:56:00
Back to CruiseResearch ActivitiesStationsMapUnderway DataData graphs

EquipmentUnitsComment
TimeDGPSUTC
LatitudeDGPSDM.mWGS84
LongitudeDGPSDM.mWGS84
HeadingGyrodeg 
SOGDGPSknotsSpeed over ground
COGDGPSdegCourse over ground
DepthEcho soundermeters200 kHz
Missing or incorrect values are displayed as -999
Navigation data collected by the RV Zeeleeuw from 2002-08-26 06:38:59 to 2002-08-26 12:56:00
                                                                                    Next 1000 lines
Time Latitude Longitude Heading SOG COG Depth
2002-08-26 06:39:06 51°13.662 2°55.955 112.2 0.1 192.2 7.6
2002-08-26 06:39:11 51°13.662 2°55.955 111.5 0.1 196.3 7.5
2002-08-26 06:39:16 51°13.661 2°55.955 111.2   258.6 7.6
2002-08-26 06:39:21 51°13.662 2°55.954 111 0.1 299.1 7.5
2002-08-26 06:39:26 51°13.662 2°55.954 110.8 0.3 298.4 7.6
2002-08-26 06:39:31 51°13.662 2°55.952 110.7 0.6 299.2 7.4
2002-08-26 06:39:36 51°13.663 2°55.95 110.2 0.8 296.9 7.6
2002-08-26 06:39:41 51°13.664 2°55.948 109.8 1.1 296.5 7.5
2002-08-26 06:39:46 51°13.665 2°55.945 109.3 1.3 294.4 7.2
2002-08-26 06:39:51 51°13.666 2°55.942 109 1.6 293.9 5.3
2002-08-26 06:39:56 51°13.667 2°55.938 108.5 1.9 292.7 -999
2002-08-26 06:40:02 51°13.668 2°55.932 108 2.2 291.3 -999
2002-08-26 06:40:07 51°13.67 2°55.927 107.5 2.3 290.4 -999
2002-08-26 06:40:12 51°13.671 2°55.922 107 2.6 289.5 -999
2002-08-26 06:40:16 51°13.672 2°55.917 106.3 2.7 288.2 -999
2002-08-26 06:40:22 51°13.673 2°55.909 106 2.9 287.5 -999
2002-08-26 06:40:27 51°13.674 2°55.903 105.5 3 286.7 -999
2002-08-26 06:40:32 51°13.676 2°55.896 105 3.1 286.1 -999
2002-08-26 06:40:36 51°13.677 2°55.891 104.5 3.2 285.9 -999
2002-08-26 06:40:42 51°13.678 2°55.882 104 3.3 285.6 -999
2002-08-26 06:40:47 51°13.679 2°55.875 103.5 3.3 285.4 -999
2002-08-26 06:40:52 51°13.68 2°55.868 102.7 3.3 284.9 -999
2002-08-26 06:40:56 51°13.681 2°55.863 101.8 3.3 283.8 9.8
2002-08-26 06:41:02 51°13.682 2°55.854 100.7 3.3 283 -999
2002-08-26 06:41:07 51°13.683 2°55.847 99.5 3.2 282.3 -999
2002-08-26 06:41:11 51°13.684 2°55.842 98.2 3.2 281.1 10
2002-08-26 06:41:16 51°13.685 2°55.835 96.8 3.1 280.4 9.9
2002-08-26 06:41:21 51°13.686 2°55.828 95.7 3.1 279.1 9
2002-08-26 06:41:26 51°13.686 2°55.822 94.2 3 277.6 9
2002-08-26 06:41:31 51°13.686 2°55.815 92.8 2.9 276.5 9.4
2002-08-26 06:41:36 51°13.687 2°55.809 91.7 2.9 275.3 9.7
2002-08-26 06:41:40 51°13.687 2°55.804 90.3 2.8 273.9 10
2002-08-26 06:41:46 51°13.687 2°55.797 89.2 2.7 272.4 10.4
2002-08-26 06:41:51 51°13.687 2°55.791 87.7 2.7 271.4 10.9
2002-08-26 06:41:56 51°13.687 2°55.785 86.5 2.6 270.6 11.5
2002-08-26 06:42:00 51°13.687 2°55.781 85.3 2.5 270 12.2
2002-08-26 06:42:06 51°13.687 2°55.775 84.2 2.3 268.4 12.6
2002-08-26 06:42:11 51°13.687 2°55.77 82.8 2.2 267.5 13
2002-08-26 06:42:16 51°13.687 2°55.766 81.5 2 267 13
2002-08-26 06:42:20 51°13.687 2°55.762 80.5 1.9 267 13
2002-08-26 06:42:26 51°13.687 2°55.758 79.7 1.7 266.1 13.1
2002-08-26 06:42:31 51°13.687 2°55.755 78.5 1.6 266.3 13
2002-08-26 06:42:36 51°13.686 2°55.752 77.2 1.4 265.1 12.8
2002-08-26 06:42:40 51°13.686 2°55.75 75.7 1.2 265.6 12.8
2002-08-26 06:42:46 51°13.686 2°55.747 74 1 265.5 13
2002-08-26 06:42:51 51°13.687 2°55.746 72 0.8 267.4 13
2002-08-26 06:42:56 51°13.687 2°55.745 70 0.6 268.4 13
2002-08-26 06:43:00 51°13.686 2°55.744 67.8 0.5 275.6 13.1
2002-08-26 06:43:06 51°13.686 2°55.743 65.5 0.3 292.8 13.1
2002-08-26 06:43:11 51°13.687 2°55.743 62.8 0.2 324.7 13
2002-08-26 06:43:16 51°13.687 2°55.743 60 0.3 19.4 12.9
2002-08-26 06:43:20 51°13.687 2°55.744 56.8 0.5 32.5 12.9
2002-08-26 06:43:26 51°13.689 2°55.746 52.5 0.9 37.8 13
2002-08-26 06:43:31 51°13.69 2°55.747 46.8 1.2 34.5 13.1
2002-08-26 06:43:36 51°13.693 2°55.749 40.8 1.6 28.8 13.2
2002-08-26 06:43:40 51°13.695 2°55.751 33.5 1.9 24.2 12.8
2002-08-26 06:43:46 51°13.699 2°55.752 25.8 2.3 17.2 12.9
2002-08-26 06:43:52 51°13.703 2°55.753 18.5 2.5 11.5 13.4
2002-08-26 06:43:56 51°13.706 2°55.753 11.2 2.8 3.2 13.1
2002-08-26 06:44:00 51°13.71 2°55.753 3.8 3 357.6 13.2
2002-08-26 06:44:06 51°13.715 2°55.751 356.7 3.2 349.6 12.3
2002-08-26 06:44:11 51°13.72 2°55.748 349.2 3.5 342.6 11.4
2002-08-26 06:44:16 51°13.725 2°55.745 341.7 3.8 336.7 10.5
2002-08-26 06:44:20 51°13.729 2°55.74 335.2 4.1 331.4 9.8
2002-08-26 06:44:26 51°13.735 2°55.734 331.2 4.5 327.4 9.5
2002-08-26 06:44:31 51°13.741 2°55.727 329 4.8 325.2 9.4
2002-08-26 06:44:36 51°13.747 2°55.72 328.2 5.2 324.1 9.2
2002-08-26 06:44:40 51°13.752 2°55.714 328 5.7 323.8 9.2
2002-08-26 06:44:46 51°13.76 2°55.704 328.7 6.1 324 9.2
2002-08-26 06:44:51 51°13.768 2°55.696 329.2 6.4 324.7 9.2
2002-08-26 06:44:56 51°13.776 2°55.687 329 6.8 325.4 9.2
2002-08-26 06:45:02 51°13.786 2°55.677 329.8 7 326 9.2
2002-08-26 06:45:06 51°13.793 2°55.67 331.3 7.3 327.6 9.7
2002-08-26 06:45:11 51°13.802 2°55.661 333.2 7.5 329 9.9
2002-08-26 06:45:16 51°13.811 2°55.653 334.8 7.7 330.7 10
2002-08-26 06:45:20 51°13.819 2°55.647 335.7 7.8 331.8 10.3
2002-08-26 06:45:26 51°13.83 2°55.637 336.2 8 333 9.9
2002-08-26 06:45:31 51°13.84 2°55.628 336.3 8.1 333.3 9.8
2002-08-26 06:45:36 51°13.85 2°55.62 336.5 8.2 332.9 10
2002-08-26 06:45:42 51°13.863 2°55.609 336.7 5.7 332.8 9.5
2002-08-26 06:45:46 51°13.871 2°55.602 336.7 6.6 332.7 9.4
2002-08-26 06:45:51 51°13.882 2°55.594 337.3 7.9 332.8 10.2
2002-08-26 06:45:56 51°13.893 2°55.586 338.7 8.7 334.1 9.8
2002-08-26 06:46:00 51°13.902 2°55.58 338.8 8.8 335.2 9.7
2002-08-26 06:46:06 51°13.914 2°55.569 337.8 8.8 334.8 10.3
2002-08-26 06:46:12 51°13.928 2°55.56 338.2 8.8 334.3 9.9
2002-08-26 06:46:16 51°13.937 2°55.553 338.5 8.8 334.5 10.2
2002-08-26 06:46:20 51°13.946 2°55.546 338.8 8.8 334.9 9.9
2002-08-26 06:46:26 51°13.959 2°55.537 339.3 8.9 335.5 10
2002-08-26 06:46:31 51°13.97 2°55.529 339.7 8.9 335.8 9.9
2002-08-26 06:46:36 51°13.981 2°55.52 339 8.9 335.2 10.5
2002-08-26 06:46:40 51°13.99 2°55.514 339.2 8.9 334.9 9.9
2002-08-26 06:46:46 51°14.004 2°55.503 339.5 8.9 335 9.6
2002-08-26 06:46:51 51°14.015 2°55.495 339.3 8.8 335.2 10.1
2002-08-26 06:46:56 51°14.026 2°55.486 339 8.8 334.7 10
2002-08-26 06:47:00 51°14.035 2°55.48 339.2 8.9 334.6 10.2
2002-08-26 06:47:06 51°14.048 2°55.47 339 8.9 334.4 10.3
2002-08-26 06:47:11 51°14.059 2°55.461 338.5 8.8 334.1 10.3
2002-08-26 06:47:16 51°14.07 2°55.452 338.3 8.8 333.8 9.4
2002-08-26 06:47:20 51°14.079 2°55.445 338.8 8.8 334 10.1
2002-08-26 06:47:26 51°14.092 2°55.435 338.7 8.8 333.9 10.3
2002-08-26 06:47:31 51°14.103 2°55.426 338.2 8.8 333.7 10.3
2002-08-26 06:47:36 51°14.114 2°55.417 337.8 8.8 333.5 9.9
2002-08-26 06:47:41 51°14.125 2°55.409 338.3 8.8 333.6 9.9
2002-08-26 06:47:46 51°14.136 2°55.4 338.3 8.8 333.8 10
2002-08-26 06:47:51 51°14.146 2°55.391 337.5 8.8 333.4 9.9
2002-08-26 06:47:56 51°14.157 2°55.382 336.2 8.8 332 10
2002-08-26 06:48:00 51°14.166 2°55.375 334.5 8.8 330.9 10
2002-08-26 06:48:06 51°14.178 2°55.362 333.3 8.8 329.1 9.9
2002-08-26 06:48:11 51°14.189 2°55.352 332 8.8 328 9.7
2002-08-26 06:48:16 51°14.199 2°55.341 330.2 8.8 326.1 9.9
2002-08-26 06:48:19 51°14.205 2°55.335 328.7 8.8 324.8 9.9
2002-08-26 06:48:26 51°14.218 2°55.318 327.2 8.8 323.3 10
2002-08-26 06:48:32 51°14.23 2°55.303 325.8 8.8 322.2 10
2002-08-26 06:48:36 51°14.238 2°55.293 324.7 8.9 320.8 10
2002-08-26 06:48:40 51°14.245 2°55.282 323.2 8.9 319.4 9.7
2002-08-26 06:48:46 51°14.256 2°55.266 321.5 8.9 317.5 9.8
2002-08-26 06:48:51 51°14.264 2°55.252 319 8.9 315.3 9.8
2002-08-26 06:48:56 51°14.273 2°55.237 316.3 8.9 312.7 9.5
2002-08-26 06:49:00 51°14.279 2°55.225 314 8.9 310.8 9.1
2002-08-26 06:49:06 51°14.288 2°55.206 312.2 9 308.4 9.5
2002-08-26 06:49:11 51°14.296 2°55.19 310.5 9 306.9 9.4
2002-08-26 06:49:16 51°14.303 2°55.174 309.2 9 305.6 9.6
2002-08-26 06:49:20 51°14.309 2°55.161 308.8 9 304.6 9.7
2002-08-26 06:49:26 51°14.317 2°55.141 307.7 9 303.7 9.9
2002-08-26 06:49:31 51°14.324 2°55.124 306.2 8.9 302.6 9
2002-08-26 06:49:36 51°14.33 2°55.107 305.5 8.8 301.3 7.4
2002-08-26 06:49:41 51°14.336 2°55.091 305 8.8 300.1 9.5
2002-08-26 06:49:46 51°14.342 2°55.074 304.3 8.7 299.3 9.7
2002-08-26 06:49:51 51°14.347 2°55.057 304.2 8.6 298.4 9.9
2002-08-26 06:49:56 51°14.353 2°55.041 304.3 8.6 297.9 9.6
2002-08-26 06:50:01 51°14.358 2°55.023 303.7 8.6 297.2 9.4
2002-08-26 06:50:06 51°14.363 2°55.007 303.3 8.6 295.2 9.1
2002-08-26 06:50:11 51°14.368 2°54.989 301.7 8.5 294 9
2002-08-26 06:50:16 51°14.372 2°54.972 301.2 8.5 292 9.1
2002-08-26 06:50:21 51°14.376 2°54.954 299.3 8.6 290.5 9.2
2002-08-26 06:50:26 51°14.379 2°54.935 295.5 8.8 286 9.2
2002-08-26 06:50:31 51°14.381 2°54.915 289.8 9 280.4 9.3
2002-08-26 06:50:35 51°14.382 2°54.898 281.8 9.4 273.7 -999
2002-08-26 06:50:41 51°14.381 2°54.872 275.8 9.7 269.6 8.9
2002-08-26 06:50:46 51°14.379 2°54.849 271.7 10.1 265 8.9
2002-08-26 06:50:51 51°14.377 2°54.826 269.2 10.4 263 8.7
2002-08-26 06:50:56 51°14.375 2°54.802 269 10.7 261.6 8.5
2002-08-26 06:51:00 51°14.373 2°54.783 268 10.9 261.4 9
2002-08-26 06:51:06 51°14.37 2°54.754 266 11.1 260.1 7.7
2002-08-26 06:51:12 51°14.366 2°54.725 265.2 11.3 259 8.7
2002-08-26 06:51:16 51°14.364 2°54.705 265 11.5 258.3 8.2
2002-08-26 06:51:21 51°14.361 2°54.679 265.2 11.6 258.9 7.9
2002-08-26 06:51:26 51°14.358 2°54.653 266.2 11.7 260.3 -999
2002-08-26 06:51:31 51°14.354 2°54.627 267.2 11.8 259.5 7.7
2002-08-26 06:51:36 51°14.352 2°54.601 266.8 12 259.8 8.4
2002-08-26 06:51:40 51°14.35 2°54.58 266.5 12 259.9 8.6
2002-08-26 06:51:46 51°14.345 2°54.549 263.8 12.1 257.8 8.7
2002-08-26 06:51:52 51°14.34 2°54.518 260.8 12.1 256.7 8.6
2002-08-26 06:51:57 51°14.334 2°54.492 257.5 12.2 252.2 8.8
2002-08-26 06:52:00 51°14.329 2°54.478 253.5 12.3 249.1 -999
2002-08-26 06:52:06 51°14.322 2°54.447 252.2 12.4 247.5 8.6
2002-08-26 06:52:11 51°14.315 2°54.422 250.8 12.4 246.6 8.7
2002-08-26 06:52:16 51°14.308 2°54.397 250.7 12.5 246.2 8.8
2002-08-26 06:52:20 51°14.303 2°54.377 250.5 12.4 246.6 8.5
2002-08-26 06:52:26 51°14.294 2°54.347 250.3 12.5 246 8.7
2002-08-26 06:52:31 51°14.286 2°54.322 248.2 12.4 245.1 8.6
2002-08-26 06:52:36 51°14.28 2°54.296 248.8 12.5 244.8 8.7
2002-08-26 06:52:40 51°14.274 2°54.276 250.3 12.5 245.5 8.6
2002-08-26 06:52:46 51°14.265 2°54.246 249.7 12.7 245.2 8.6
2002-08-26 06:52:51 51°14.257 2°54.22 249.8 12.7 244.9 8.5
2002-08-26 06:52:56 51°14.251 2°54.195 250.8 12.7 246.6 8.5
2002-08-26 06:53:00 51°14.244 2°54.174 248.7 12.8 244.1 8.5
2002-08-26 06:53:06 51°14.236 2°54.142 251.5 13 247.4 8.6
2002-08-26 06:53:11 51°14.228 2°54.116 249.5 13 245.5 8.6
2002-08-26 06:53:16 51°14.221 2°54.089 251 13 246.3 8.4
2002-08-26 06:53:20 51°14.215 2°54.068 252.2 13.1 246.7 8.5
2002-08-26 06:53:26 51°14.206 2°54.037 249.3 13.1 245.2 8.4
2002-08-26 06:53:31 51°14.199 2°54.01 251 13.1 246.3 8.5
2002-08-26 06:53:36 51°14.19 2°53.984 249.2 13.3 244.6 8.4
2002-08-26 06:53:40 51°14.186 2°53.961 250.2 13.4 246.8 8.4
2002-08-26 06:53:46 51°14.175 2°53.929 248.8 13.6 244.1 8.3
2002-08-26 06:53:51 51°14.168 2°53.901 249.3 13.7 245.3 8.5
2002-08-26 06:53:56 51°14.16 2°53.873 249.8 13.8 244.9 8.5
2002-08-26 06:54:00 51°14.153 2°53.851 249.2 13.9 245 8.5
2002-08-26 06:54:06 51°14.143 2°53.817 249 14.2 245.6 8.5
2002-08-26 06:54:11 51°14.136 2°53.787 250.2 14.3 246.3 8.5
2002-08-26 06:54:16 51°14.128 2°53.758 250.5 14.3 246.4 8.6
2002-08-26 06:54:21 51°14.119 2°53.729 249 14.4 245.8 8.5
2002-08-26 06:54:26 51°14.112 2°53.699 251 14.6 247.8 8.5
2002-08-26 06:54:31 51°14.103 2°53.67 250.2 14.6 246.7 8.5
2002-08-26 06:54:36 51°14.095 2°53.64 250.2 14.7 246.7 8.5
2002-08-26 06:54:41 51°14.085 2°53.61 249.2 15.1 244.4 8.5
2002-08-26 06:54:46 51°14.078 2°53.577 250.8 15.4 246.9 8.5
2002-08-26 06:54:51 51°14.068 2°53.546 250.5 15.7 245.6 8.8
2002-08-26 06:54:56 51°14.061 2°53.514 251.5 15.4 247.8 8.9
2002-08-26 06:55:01 51°14.052 2°53.485 248.8 15.2 246.4 8.7
2002-08-26 06:55:06 51°14.044 2°53.452 250 15.5 247.4 8.6
2002-08-26 06:55:11 51°14.036 2°53.42 253.5 15.6 247.7 8.7
2002-08-26 06:55:16 51°14.026 2°53.389 248.5 15.6 245.4 8.8
2002-08-26 06:55:20 51°14.02 2°53.364 250.5 15.5 246.5 8.9
2002-08-26 06:55:26 51°14.009 2°53.327 249.7 15.3 245.2 8.9
2002-08-26 06:55:31 51°14.001 2°53.296 250.5 15.2 246.4 9
2002-08-26 06:55:36 51°13.992 2°53.267 249.3 15 245.6 9.1
2002-08-26 06:55:42 51°13.982 2°53.231 248.8 14.8 245.4 9.1
2002-08-26 06:55:46 51°13.976 2°53.208 249.2 14.6 245.1 8.9
2002-08-26 06:55:51 51°13.967 2°53.178 249.2 14.6 245.7 8.6
2002-08-26 06:55:56 51°13.959 2°53.149 250.8 14.5 246.5 8.8
2002-08-26 06:56:02 51°13.949 2°53.115 247 14.3 245.5 8.8
2002-08-26 06:56:06 51°13.941 2°53.092 248 14.4 244.3 8.8
2002-08-26 06:56:11 51°13.935 2°53.061 250.8 14.5 247.4 8.9
2002-08-26 06:56:16 51°13.925 2°53.032 247.8 14.7 245.3 9
2002-08-26 06:56:20 51°13.92 2°53.007 251.2 14.8 247.9 9.1
2002-08-26 06:56:26 51°13.91 2°52.971 250.7 15 247.1 9.2
2002-08-26 06:56:31 51°13.902 2°52.939 251.3 15.4 247.6 9.3
2002-08-26 06:56:36 51°13.893 2°52.907 251.3 15.7 246.6 9.4
2002-08-26 06:56:40 51°13.886 2°52.881 250.8 15.9 247.3 9.4
2002-08-26 06:56:46 51°13.876 2°52.842 251.3 15.8 247.1 9.6
2002-08-26 06:56:51 51°13.868 2°52.81 250 15.7 247.2 9.6
2002-08-26 06:56:56 51°13.858 2°52.779 249.7 15.7 245.2 9.6
2002-08-26 06:57:00 51°13.852 2°52.753 249.3 15.7 246.3 9.6
2002-08-26 06:57:06 51°13.839 2°52.718 246.3 15.4 243.1 9.6
2002-08-26 06:57:11 51°13.832 2°52.686 248 15.2 245.3 9.5
2002-08-26 06:57:16 51°13.821 2°52.658 245 15 242.7 9.5
2002-08-26 06:57:20 51°13.814 2°52.633 244.3 15.2 242 9.5
2002-08-26 06:57:26 51°13.803 2°52.596 248 15.4 245.2 9.6
2002-08-26 06:57:31 51°13.792 2°52.567 245.2 15.3 242.6 9.6
2002-08-26 06:57:36 51°13.784 2°52.535 246.8 15.5 244.4 9.6
2002-08-26 06:57:40 51°13.776 2°52.51 247.7 15.7 244.1 9.7
2002-08-26 06:57:46 51°13.764 2°52.473 246.3 15.9 243.2 9.7
2002-08-26 06:57:51 51°13.757 2°52.44 248.5 15.9 246.1 9.6
2002-08-26 06:57:56 51°13.745 2°52.41 247 15.6 243.5 9.8
2002-08-26 06:58:00 51°13.739 2°52.385 246.2 15.5 243.9 9.8
2002-08-26 06:58:06 51°13.726 2°52.349 246.5 15.5 243.4 9.8
2002-08-26 06:58:11 51°13.717 2°52.318 246.3 15.5 243.2 9.9
2002-08-26 06:58:16 51°13.707 2°52.289 244.8 15.3 242.2 9.9
2002-08-26 06:58:20 51°13.7 2°52.264 245 15.2 242.8 9.9
2002-08-26 06:58:26 51°13.687 2°52.229 243.8 15.2 241.4 9.9
2002-08-26 06:58:31 51°13.677 2°52.199 244.7 15.4 241.6 9.8
2002-08-26 06:58:36 51°13.665 2°52.168 244.2 15.8 241.3 9.8
2002-08-26 06:58:40 51°13.659 2°52.142 246.8 15.9 243.7 9.8
2002-08-26 06:58:46 51°13.645 2°52.106 244.8 15.8 242.7 9.8
2002-08-26 06:58:51 51°13.638 2°52.073 250.3 15.7 246.5 9.8
2002-08-26 06:58:55 51°13.631 2°52.048 249.7 15.7 245.5 9.8
2002-08-26 06:59:00 51°13.621 2°52.018 248 15.3 243.8 9.9
2002-08-26 06:59:06 51°13.608 2°51.983 244.5 15.3 241.8 9.8
2002-08-26 06:59:11 51°13.601 2°51.951 247.5 15.5 244.4 9.7
2002-08-26 06:59:16 51°13.591 2°51.92 246.8 15.5 243.7 9.8
2002-08-26 06:59:20 51°13.582 2°51.897 245.3 15.5 242.5 9.9
2002-08-26 06:59:26 51°13.572 2°51.858 248 15.5 244.5 9.9
2002-08-26 06:59:32 51°13.561 2°51.821 247.7 15.5 244.5 9.9
2002-08-26 06:59:36 51°13.553 2°51.797 246.5 15.6 243.9 10
2002-08-26 06:59:40 51°13.546 2°51.771 248.5 15.8 245.5 9.9
2002-08-26 06:59:46 51°13.534 2°51.733 248.5 15.8 244.7 9.9
2002-08-26 06:59:51 51°13.527 2°51.701 249.5 15.7 246.4 9.9
2002-08-26 06:59:55 51°13.518 2°51.677 248 15.5 244.8 9.9
2002-08-26 07:00:01 51°13.508 2°51.64 247.2 15.4 245 9.9
2002-08-26 07:00:06 51°13.498 2°51.61 246.3 15.4 243.3 10
2002-08-26 07:00:11 51°13.489 2°51.579 247 15.5 244.1 10
2002-08-26 07:00:16 51°13.479 2°51.548 246.3 15.7 242.8 10
2002-08-26 07:00:20 51°13.472 2°51.522 246.5 15.8 244 10
2002-08-26 07:00:26 51°13.46 2°51.485 246.2 15.8 244.1 10
2002-08-26 07:00:31 51°13.451 2°51.453 247.8 15.8 244.4 10.1
2002-08-26 07:00:36 51°13.442 2°51.421 248 15.8 245 10.1
2002-08-26 07:00:42 51°13.431 2°51.385 248.2 15.6 244.6 10.2
2002-08-26 07:00:46 51°13.424 2°51.36 248.2 15.4 244.8 10.2
2002-08-26 07:00:51 51°13.414 2°51.329 247.7 15.5 244.4 10.2
2002-08-26 07:00:56 51°13.405 2°51.298 247.2 15.5 244.4 10.2
2002-08-26 07:01:00 51°13.397 2°51.273 246.5 15.6 244 10.2
2002-08-26 07:01:06 51°13.386 2°51.236 247.3 15.5 244.1 10.3
2002-08-26 07:01:12 51°13.373 2°51.2 244.7 15.5 241.9 10.3
2002-08-26 07:01:16 51°13.365 2°51.174 245 15.9 242.2 10.3
2002-08-26 07:01:19 51°13.359 2°51.156 244.8 15.9 242.3 10.5
2002-08-26 07:01:26 51°13.344 2°51.113 244.3 15.7 242.2 10.4
2002-08-26 07:01:31 51°13.334 2°51.083 244.5 15.6 242.5 10.4
2002-08-26 07:01:36 51°13.324 2°51.052 244 15.6 241.6 10.4
2002-08-26 07:01:41 51°13.314 2°51.022 244.8 15.5 241.9 10.5
2002-08-26 07:01:46 51°13.303 2°50.993 241.8 15.4 239.5 10.3
2002-08-26 07:01:52 51°13.291 2°50.955 242.3 15.6 239.4 10.2
2002-08-26 07:01:56 51°13.281 2°50.933 242.2 15.7 241.7 10.2
2002-08-26 07:02:00 51°13.272 2°50.909 241.2 15.7 238.9 10.3
2002-08-26 07:02:04 51°13.264 2°50.884 241.2 15.7 238.4 10.3
2002-08-26 07:02:11 51°13.248 2°50.843 241.7 15.8 238.9 10.4
2002-08-26 07:02:16 51°13.236 2°50.814 241.8 15.8 238.7 10.3
2002-08-26 07:02:21 51°13.226 2°50.782 243 15.8 241.1 10.4
2002-08-26 07:02:26 51°13.215 2°50.754 242.5 15.4 239.4 10.5
2002-08-26 07:02:31 51°13.205 2°50.724 241.8 15.3 239.6 10.5
2002-08-26 07:02:36 51°13.194 2°50.694 243.8 15.6 240.5 10.5
2002-08-26 07:02:40 51°13.186 2°50.67 241.2 15.5 239.4 10.4
2002-08-26 07:02:46 51°13.171 2°50.636 240.5 15.5 238.5 10.3
2002-08-26 07:02:51 51°13.162 2°50.604 242.8 15.6 241.2 10.4
2002-08-26 07:02:56 51°13.15 2°50.576 241 15.5 239.8 10.4
2002-08-26 07:03:00 51°13.142 2°50.552 241 15.6 239.7 10.4
2002-08-26 07:03:05 51°13.131 2°50.522 241.3 15.6 239.3 10.6
2002-08-26 07:03:11 51°13.118 2°50.487 241.2 15.5 239 10.6
2002-08-26 07:03:16 51°13.107 2°50.457 240.8 15.6 239.2 10.5
2002-08-26 07:03:20 51°13.098 2°50.434 241.7 15.7 239.2 10.6
2002-08-26 07:03:26 51°13.084 2°50.399 240.5 15.5 238.4 10.6
2002-08-26 07:03:32 51°13.071 2°50.363 240.5 15.6 238.5 10.5
2002-08-26 07:03:36 51°13.062 2°50.34 240.2 15.6 237.8 10.5
2002-08-26 07:03:40 51°13.052 2°50.316 241.3 15.6 238.9 10.4
2002-08-26 07:03:46 51°13.039 2°50.28 242.8 15.9 239.7 10.4
2002-08-26 07:03:51 51°13.028 2°50.249 241.7 16 239.8 10.6
2002-08-26 07:03:56 51°13.017 2°50.22 241 15.7 238.8 10.6
2002-08-26 07:04:00 51°13.008 2°50.196 241.5 15.7 239.5 10.6
2002-08-26 07:04:06 51°12.996 2°50.16 242.5 15.5 239.9 10.5
2002-08-26 07:04:11 51°12.983 2°50.133 238 15.5 236.7 10.5
2002-08-26 07:04:16 51°12.974 2°50.1 242.2 15.7 241.1 10.4
2002-08-26 07:04:20 51°12.964 2°50.078 243 15.8 239.9 10.5
2002-08-26 07:04:26 51°12.952 2°50.04 242.3 15.8 241.2 10.5
2002-08-26 07:04:31 51°12.94 2°50.01 241.8 15.9 239.3 10.6
2002-08-26 07:04:36 51°12.93 2°49.979 242.2 15.8 240.6 10.7
2002-08-26 07:04:40 51°12.92 2°49.956 241.5 15.7 239.2 10.7
2002-08-26 07:04:46 51°12.907 2°49.92 241.5 15.7 239.3 10.7
2002-08-26 07:04:51 51°12.897 2°49.888 242.3 15.8 240.8 10.6
2002-08-26 07:04:56 51°12.885 2°49.859 242 16 239.7 10.6
2002-08-26 07:05:00 51°12.878 2°49.833 243 16 242 10.6
2002-08-26 07:05:06 51°12.864 2°49.797 242.3 16 240 10.6
2002-08-26 07:05:11 51°12.853 2°49.766 242.3 15.9 240 10.8
2002-08-26 07:05:16 51°12.842 2°49.736 241.3 15.8 239.1 10.7
2002-08-26 07:05:20 51°12.833 2°49.712 242.3 16 241 10.6
2002-08-26 07:05:26 51°12.82 2°49.674 243 16 240.3 10.7
2002-08-26 07:05:31 51°12.809 2°49.644 241.5 16 239.7 10.7
2002-08-26 07:05:36 51°12.798 2°49.612 243 16 240.5 10.7
2002-08-26 07:05:40 51°12.789 2°49.588 242.5 16 240.2 10.8
2002-08-26 07:05:44 51°12.78 2°49.564 241 15.9 239.1 10.7
2002-08-26 07:05:51 51°12.765 2°49.521 242.3 16 240 10.8
2002-08-26 07:05:56 51°12.753 2°49.493 240.2 15.8 238.3 10.9
2002-08-26 07:05:59 51°12.746 2°49.474 239.5 15.8 238.4 10.8
2002-08-26 07:06:04 51°12.735 2°49.444 243 16 241.3 10.8
2002-08-26 07:06:11 51°12.72 2°49.401 241.8 16.1 240.1 10.8
2002-08-26 07:06:16 51°12.71 2°49.368 243.8 16.1 242 10.7
2002-08-26 07:06:20 51°12.701 2°49.344 243.8 16 241.2 10.8
2002-08-26 07:06:26 51°12.688 2°49.307 243.2 15.8 241.6 10.8
2002-08-26 07:06:31 51°12.677 2°49.278 242.2 15.7 239.7 10.8
2002-08-26 07:06:36 51°12.666 2°49.247 241.2 15.8 239.4 10.7
2002-08-26 07:06:40 51°12.657 2°49.222 244.2 15.9 241.6 10.8
2002-08-26 07:06:46 51°12.645 2°49.187 242 15.7 239.8 10.8
2002-08-26 07:06:51 51°12.634 2°49.155 242.3 15.7 240.1 10.8
2002-08-26 07:06:56 51°12.623 2°49.126 242.5 15.7 240.1 10.9
2002-08-26 07:07:00 51°12.615 2°49.102 241 15.6 239.7 11
2002-08-26 07:07:04 51°12.605 2°49.079 241.5 15.6 240.1 11
2002-08-26 07:07:11 51°12.59 2°49.036 241.3 15.8 239.4 11
2002-08-26 07:07:16 51°12.579 2°49.005 242.2 15.9 240.2 11
2002-08-26 07:07:19 51°12.572 2°48.988 242.5 15.8 239.7 11
2002-08-26 07:07:24 51°12.562 2°48.957 242 15.6 240 11.1
2002-08-26 07:07:31 51°12.546 2°48.916 241.8 15.6 239.4 11
2002-08-26 07:07:36 51°12.537 2°48.884 244.7 15.8 242.3 11
2002-08-26 07:07:40 51°12.527 2°48.861 241 15.7 238.6 10.9
2002-08-26 07:07:46 51°12.515 2°48.825 241.2 15.6 240.1 11
2002-08-26 07:07:51 51°12.502 2°48.797 240.7 15.6 238.3 11
2002-08-26 07:07:56 51°12.493 2°48.765 241.5 15.7 240.4 10.9
2002-08-26 07:08:00 51°12.483 2°48.742 241.8 15.8 239.6 10.9
2002-08-26 07:08:07 51°12.467 2°48.7 242.3 15.8 239.7 11
2002-08-26 07:08:11 51°12.459 2°48.675 242.5 15.7 240.1 11.1
2002-08-26 07:08:16 51°12.448 2°48.647 241.2 15.6 238.7 11
2002-08-26 07:08:20 51°12.439 2°48.621 241 15.9 239.8 11
2002-08-26 07:08:26 51°12.426 2°48.584 243 16.1 240.2 11.1
2002-08-26 07:08:31 51°12.415 2°48.552 243.2 16 241.4 11.1
2002-08-26 07:08:36 51°12.405 2°48.523 243 15.5 240.8 11.1
2002-08-26 07:08:41 51°12.393 2°48.494 241.3 15.4 239.3 11.1
2002-08-26 07:08:46 51°12.384 2°48.464 242.7 15.5 240.6 11.1
2002-08-26 07:08:51 51°12.373 2°48.433 242.8 15.6 240.9 11.1
2002-08-26 07:08:56 51°12.362 2°48.403 242.7 15.7 240.5 11.1
2002-08-26 07:09:00 51°12.354 2°48.379 242.3 15.6 240.6 11.2
2002-08-26 07:09:04 51°12.345 2°48.356 242 15.4 240.1 11.2
2002-08-26 07:09:11 51°12.33 2°48.315 241.3 15.4 238.9 11.1
2002-08-26 07:09:16 51°12.32 2°48.284 242.7 15.5 240.7 11.1
2002-08-26 07:09:20 51°12.31 2°48.263 240.2 15.2 238.3 11.1
2002-08-26 07:09:26 51°12.298 2°48.227 240.7 15.2 239.8 11.1
2002-08-26 07:09:31 51°12.287 2°48.198 242 15.2 239.8 11.1
2002-08-26 07:09:36 51°12.277 2°48.169 241.8 15.2 240.7 11.1
2002-08-26 07:09:40 51°12.269 2°48.146 242.8 15.2 240.3 11.2
2002-08-26 07:09:46 51°12.257 2°48.111 242.5 15.1 240.2 11.2
2002-08-26 07:09:51 51°12.246 2°48.082 242.7 15 239.5 11.2
2002-08-26 07:09:56 51°12.236 2°48.054 241.5 14.9 239.6 11.2
2002-08-26 07:10:00 51°12.227 2°48.031 242 15 240.4 11.2
2002-08-26 07:10:05 51°12.217 2°48.001 242 15.1 239.7 11.2
2002-08-26 07:10:11 51°12.205 2°47.966 242.5 15.2 240.9 11.2
2002-08-26 07:10:16 51°12.194 2°47.937 241.3 15.2 239.5 11.2
2002-08-26 07:10:20 51°12.186 2°47.913 243.7 15.2 241.7 11.2
2002-08-26 07:10:24 51°12.179 2°47.89 242.7 14.9 240.3 11.3
2002-08-26 07:10:31 51°12.164 2°47.85 243.5 15 241.2 11.2
2002-08-26 07:10:36 51°12.155 2°47.82 245.8 15 242.6 11.2
2002-08-26 07:10:39 51°12.148 2°47.804 240.3 14.9 239.7 11.2
2002-08-26 07:10:44 51°12.138 2°47.775 241.3 14.7 239.9 11.3
2002-08-26 07:10:51 51°12.124 2°47.737 241.8 14.6 239.6 11.2
2002-08-26 07:10:56 51°12.113 2°47.708 241.2 14.7 239.5 11.2
2002-08-26 07:11:01 51°12.103 2°47.679 242.7 14.8 240.3 11.2
2002-08-26 07:11:06 51°12.093 2°47.653 241 14.7 238.7 11.2
2002-08-26 07:11:11 51°12.082 2°47.625 239.7 14.6 237.8 11.3
2002-08-26 07:11:16 51°12.072 2°47.597 241.7 14.7 239.3 11.3
2002-08-26 07:11:20 51°12.063 2°47.574 241.8 14.8 239.3 11.1
2002-08-26 07:11:26 51°12.051 2°47.54 241.8 14.7 239.8 11.1
2002-08-26 07:11:31 51°12.04 2°47.513 241.3 14.6 239.1 11.1
2002-08-26 07:11:36 51°12.03 2°47.484 242.2 14.8 240 11.1
2002-08-26 07:11:40 51°12.022 2°47.462 241.2 14.7 239.6 11.2
2002-08-26 07:11:46 51°12.009 2°47.429 241 14.7 239.2 11.2
2002-08-26 07:11:51 51°12 2°47.4 241.7 14.7 240 11.1
2002-08-26 07:11:56 51°11.989 2°47.371 242.3 15 239.9 11.1
2002-08-26 07:12:00 51°11.981 2°47.348 242.7 15 240.9 11.1
2002-08-26 07:12:03 51°11.975 2°47.331 241.7 14.9 239.4 11
2002-08-26 07:12:11 51°11.959 2°47.285 243 14.9 241.2 11
2002-08-26 07:12:16 51°11.948 2°47.257 242 14.9 240.2 11
2002-08-26 07:12:20 51°11.941 2°47.233 242.3 14.9 241.7 10.9
2002-08-26 07:12:26 51°11.928 2°47.198 243.5 15 241.5 10.9
2002-08-26 07:12:31 51°11.919 2°47.169 243.7 15 241.8 11
2002-08-26 07:12:36 51°11.909 2°47.14 243.2 15 241.5 11
2002-08-26 07:12:40 51°11.901 2°47.117 243.3 14.9 241.3 11
2002-08-26 07:12:47 51°11.887 2°47.077 242.8 14.8 241.4 11
2002-08-26 07:12:51 51°11.878 2°47.055 242.7 14.8 240.2 10.9
2002-08-26 07:12:56 51°11.869 2°47.025 243.2 15 241.7 10.9
2002-08-26 07:13:00 51°11.861 2°47.002 243 14.9 240.7 10.8
2002-08-26 07:13:04 51°11.853 2°46.98 241.7 14.7 239.9 10.8
2002-08-26 07:13:11 51°11.838 2°46.941 240.8 14.7 238.9 10.9
2002-08-26 07:13:16 51°11.828 2°46.913 241.3 14.7 240.1 10.9
2002-08-26 07:13:19 51°11.821 2°46.896 240.5 14.8 238.8 10.9
2002-08-26 07:13:26 51°11.807 2°46.857 241.5 14.7 239.8 10.9
2002-08-26 07:13:31 51°11.796 2°46.83 239.8 14.7 238.1 10.9
2002-08-26 07:13:36 51°11.787 2°46.8 242.7 14.9 240.9 10.8
2002-08-26 07:13:41 51°11.776 2°46.772 242.7 14.9 240.9 10.9
2002-08-26 07:13:46 51°11.766 2°46.743 243.2 14.8 241.5 10.9
2002-08-26 07:13:51 51°11.757 2°46.715 242.7 14.6 241.2 11
2002-08-26 07:13:56 51°11.746 2°46.687 241.3 14.7 239.8 10.8
2002-08-26 07:14:00 51°11.738 2°46.664 241.3 14.8 240.1 10.8
2002-08-26 07:14:04 51°11.729 2°46.642 240.7 15 239.2 10.8
2002-08-26 07:14:11 51°11.716 2°46.601 241.8 15 240.8 10.8
2002-08-26 07:14:16 51°11.705 2°46.573 241.8 14.9 240.2 10.8
2002-08-26 07:14:19 51°11.699 2°46.555 241.5 14.9 240.5 10.7
2002-08-26 07:14:24 51°11.688 2°46.527 243.2 15 241.4 10.7
2002-08-26 07:14:31 51°11.674 2°46.486 242.5 15 240.2 10.7
2002-08-26 07:14:36 51°11.665 2°46.457 242 15 240.9 10.8
2002-08-26 07:14:40 51°11.655 2°46.437 240 14.7 237.8 10.7
2002-08-26 07:14:46 51°11.644 2°46.401 240.2 14.9 239.7 10.7
2002-08-26 07:14:51 51°11.632 2°46.373 241.3 15.1 239.4 10.7
2002-08-26 07:14:56 51°11.622 2°46.344 240.7 14.9 239.6 10.8
2002-08-26 07:15:01 51°11.611 2°46.317 239.3 14.7 238.2 10.8
2002-08-26 07:15:03 51°11.607 2°46.306 240.5 14.8 238.9 10.7
2002-08-26 07:15:11 51°11.59 2°46.26 241 15.1 239.4 10.6
2002-08-26 07:15:16 51°11.58 2°46.232 241.2 14.9 239.8 10.7
2002-08-26 07:15:20 51°11.571 2°46.211 239 14.7 237.6 10.7
2002-08-26 07:15:26 51°11.559 2°46.176 239.5 14.8 238.5 10.6
2002-08-26 07:15:31 51°11.547 2°46.149 240.2 14.9 238.3 10.5
2002-08-26 07:15:36 51°11.537 2°46.121 239.2 14.8 238.3 10.5
2002-08-26 07:15:40 51°11.527 2°46.1 238.8 14.9 236.8 10.3
2002-08-26 07:15:46 51°11.515 2°46.065 239.3 14.8 238.2 10.3
2002-08-26 07:15:51 51°11.502 2°46.04 235.2 14.8 234.9 10.2
2002-08-26 07:15:56 51°11.492 2°46.011 238.7 14.7 237.8 10.2
2002-08-26 07:16:00 51°11.482 2°45.991 237.5 14.8 235.7 10.2
2002-08-26 07:16:04 51°11.474 2°45.967 238.5 14.8 238.2 10.2
2002-08-26 07:16:11 51°11.458 2°45.93 237.7 14.7 237 9.9
2002-08-26 07:16:16 51°11.447 2°45.902 239 14.6 237.6 9.9
2002-08-26 07:16:21 51°11.435 2°45.877 236 14.7 235 9.9
2002-08-26 07:16:26 51°11.425 2°45.847 237.7 14.9 237.7 9.9
2002-08-26 07:16:31 51°11.412 2°45.821 237.8 15 235.6 9.8
2002-08-26 07:16:36 51°11.403 2°45.792 237.5 14.8 237.6 9.9
2002-08-26 07:16:39 51°11.395 2°45.777 237.5 14.8 236.2 9.9
2002-08-26 07:16:46 51°11.381 2°45.738 238.7 14.7 237.3 9.8
2002-08-26 07:16:51 51°11.368 2°45.712 235 14.9 235.4 9.7
2002-08-26 07:16:56 51°11.357 2°45.683 238.7 15.1 237.1 9.8
2002-08-26 07:17:00 51°11.348 2°45.66 239.8 15 238.3 9.7
2002-08-26 07:17:03 51°11.342 2°45.644 237.3 14.7 236 9.7
2002-08-26 07:17:11 51°11.324 2°45.6 238.2 14.8 237.3 9.6
2002-08-26 07:17:16 51°11.311 2°45.574 237.5 14.9 235.5 9.6
2002-08-26 07:17:20 51°11.302 2°45.553 235 14.7 233.9 9.6
2002-08-26 07:17:26 51°11.288 2°45.521 234.5 14.8 233.6 9.3
2002-08-26 07:17:31 51°11.277 2°45.492 238.5 15 237.6 9.3
2002-08-26 07:17:36 51°11.265 2°45.467 237 14.8 235.8 9.2
2002-08-26 07:17:39 51°11.258 2°45.451 235.8 14.5 235.9 9.3
2002-08-26 07:17:43 51°11.25 2°45.429 236.8 14.5 235.4 9.1
2002-08-26 07:17:51 51°11.231 2°45.386 236.5 14.6 236.3 9.2
2002-08-26 07:17:56 51°11.22 2°45.36 237.8 14.6 236.5 9.2
2002-08-26 07:18:01 51°11.208 2°45.333 237 14.6 236.1 9.1
2002-08-26 07:18:07 51°11.196 2°45.3 238.5 14.7 237 9
2002-08-26 07:18:11 51°11.186 2°45.278 238.7 14.7 236.9 9
2002-08-26 07:18:16 51°11.176 2°45.252 237.3 14.3 236.3 8.9
2002-08-26 07:18:20 51°11.166 2°45.232 236.8 14.3 235.8 8.8
2002-08-26 07:18:24 51°11.158 2°45.209 237.8 14.6 236.5 8.7
2002-08-26 07:18:31 51°11.142 2°45.171 237.3 14.7 236.2 8.7
2002-08-26 07:18:36 51°11.131 2°45.145 238.2 14.5 237.2 8.8
2002-08-26 07:18:42 51°11.118 2°45.115 236.8 14.3 235.1 8.8
2002-08-26 07:18:46 51°11.11 2°45.092 237.5 14.3 237.4 8.7
2002-08-26 07:18:51 51°11.098 2°45.066 236.8 14.6 235.8 8.6
2002-08-26 07:18:56 51°11.088 2°45.036 238.8 14.8 239.1 8.5
2002-08-26 07:19:01 51°11.076 2°45.012 237.8 14.5 237.1 8.6
2002-08-26 07:19:06 51°11.065 2°44.986 236 14.3 235.6 8.6
2002-08-26 07:19:11 51°11.054 2°44.96 236.3 14.2 235.7 8.5
2002-08-26 07:19:16 51°11.042 2°44.933 236.2 14.4 235.7 8.4
2002-08-26 07:19:20 51°11.034 2°44.911 237.5 14.5 236.5 8.4
2002-08-26 07:19:26 51°11.02 2°44.881 235.8 14.2 235.2 8.4
2002-08-26 07:19:31 51°11.009 2°44.856 235.2 14.2 234.5 8.3
2002-08-26 07:19:36 51°10.996 2°44.829 235.8 14.5 234.8 8.2
2002-08-26 07:19:39 51°10.991 2°44.812 237.7 14.5 237.8 8.2
2002-08-26 07:19:47 51°10.972 2°44.771 234.8 14.3 235.1 8.1
2002-08-26 07:19:51 51°10.967 2°44.748 241.3 14.1 241.1 8.1
2002-08-26 07:19:56 51°10.954 2°44.724 237.8 14 237.6 8.1
2002-08-26 07:20:01 51°10.944 2°44.697 238.2 14.2 237.5 8.1
2002-08-26 07:20:06 51°10.933 2°44.671 237.2 14.2 235.2 8.1
2002-08-26 07:20:11 51°10.921 2°44.645 236.2 14.3 235.3 8.2
2002-08-26 07:20:16 51°10.911 2°44.619 236.5 14.2 236.4 8.2
2002-08-26 07:20:19 51°10.903 2°44.605 235 14.1 234.1 8
2002-08-26 07:20:26 51°10.888 2°44.568 236.3 14.2 235.4 7.9
2002-08-26 07:20:31 51°10.877 2°44.543 236.2 14.2 235.7 7.9
2002-08-26 07:20:36 51°10.865 2°44.517 235.7 14.1 234.8 7.9
2002-08-26 07:20:41 51°10.854 2°44.49 236.7 14.2 235.9 7.8
2002-08-26 07:20:46 51°10.843 2°44.464 237.7 14.3 236.1 7.8
2002-08-26 07:20:51 51°10.831 2°44.439 236.2 14.3 234.5 7.8
2002-08-26 07:20:56 51°10.821 2°44.412 237.3 14.2 236.2 7.7
2002-08-26 07:21:00 51°10.812 2°44.392 237.8 14.1 236.3 7.8
2002-08-26 07:21:04 51°10.805 2°44.37 238.2 14 236.3 7.7
2002-08-26 07:21:11 51°10.788 2°44.335 236.2 14.2 235.2 7.6
2002-08-26 07:21:16 51°10.778 2°44.308 238 14.2 236.5 7.6
2002-08-26 07:21:20 51°10.768 2°44.289 234.5 14.1 233.3 7.5
2002-08-26 07:21:27 51°10.753 2°44.252 236.7 14.1 236.4 7.5
2002-08-26 07:21:31 51°10.743 2°44.232 236.2 14.1 235 7.5
2002-08-26 07:21:36 51°10.733 2°44.207 235.8 14.1 234.8 7.5
2002-08-26 07:21:41 51°10.72 2°44.183 235 14 233.8 7.6
2002-08-26 07:21:44 51°10.715 2°44.166 235.5 13.7 235 7.5
2002-08-26 07:21:51 51°10.698 2°44.133 232.8 13.9 232.9 7.4
2002-08-26 07:21:56 51°10.689 2°44.105 239.7 14.1 238.5 7.4
2002-08-26 07:22:01 51°10.678 2°44.081 237.2 13.8 237.2 7.4
2002-08-26 07:22:06 51°10.665 2°44.056 233.5 14 233.4 7.4
2002-08-26 07:22:11 51°10.657 2°44.028 239.5 14.2 237.3 7.5
2002-08-26 07:22:16 51°10.646 2°44.004 237.8 13.9 237.7 7.5
2002-08-26 07:22:21 51°10.635 2°43.978 237 13.7 236.5 7.4
2002-08-26 07:22:26 51°10.626 2°43.951 240.7 13.9 239.9 7.4
2002-08-26 07:22:31 51°10.614 2°43.926 237.8 14 237 7.4
2002-08-26 07:22:36 51°10.605 2°43.898 240.3 14.1 240 7.4
2002-08-26 07:22:40 51°10.596 2°43.877 241.8 14.2 239.3 7.5
2002-08-26 07:22:46 51°10.585 2°43.846 239.7 13.9 238.3 7.5
2002-08-26 07:22:51 51°10.575 2°43.819 239.8 13.9 239.3 7.4
2002-08-26 07:22:56 51°10.565 2°43.792 241.3 14.1 239.4 7.4
2002-08-26 07:23:01 51°10.554 2°43.766 239.5 14.1 237.9 7.4
2002-08-26 07:23:06 51°10.545 2°43.739 239.3 13.9 238.8 7.4
2002-08-26 07:23:11 51°10.535 2°43.713 240.3 13.9 239.3 7.4
2002-08-26 07:23:16 51°10.525 2°43.687 240.5 14 238.4 7.4
2002-08-26 07:23:20 51°10.517 2°43.665 238.7 14 238.4 7.4
2002-08-26 07:23:26 51°10.504 2°43.633 239 14.2 238.2 7.3
2002-08-26 07:23:31 51°10.494 2°43.607 239.3 14.3 237.9 7.4
2002-08-26 07:23:36 51°10.484 2°43.581 239 14 238.2 7.5
2002-08-26 07:23:40 51°10.476 2°43.56 239.5 13.7 238.2 7.5
2002-08-26 07:23:47 51°10.462 2°43.524 239 13.8 238.3 7.5
2002-08-26 07:23:51 51°10.454 2°43.503 239.8 13.9 238.7 7.4
2002-08-26 07:23:56 51°10.443 2°43.477 239.2 14.1 238.5 7.4
2002-08-26 07:24:00 51°10.436 2°43.454 242.3 14.1 240.8 7.4
2002-08-26 07:24:04 51°10.428 2°43.434 241.3 14 241 7.4
2002-08-26 07:24:11 51°10.415 2°43.396 243 13.9 241.4 7.4
2002-08-26 07:24:16 51°10.408 2°43.367 245.3 14 244.3 7.4
2002-08-26 07:24:20 51°10.399 2°43.346 245.2 14 243.8 7.4
2002-08-26 07:24:26 51°10.39 2°43.312 245.2 14.1 243.1 7.4
2002-08-26 07:24:31 51°10.382 2°43.283 246.8 14.1 245.7 7.5
2002-08-26 07:24:36 51°10.374 2°43.256 247.2 13.8 244.8 7.4
2002-08-26 07:24:41 51°10.365 2°43.229 244.7 13.8 243.3 7.4
2002-08-26 07:24:46 51°10.357 2°43.2 248 13.9 245.1 7.4
2002-08-26 07:24:51 51°10.347 2°43.173 244.5 14 243.3 7.4
2002-08-26 07:24:56 51°10.341 2°43.145 246.5 13.9 245.3 7.3
2002-08-26 07:25:00 51°10.332 2°43.123 244.8 13.9 243.7 7.4
2002-08-26 07:25:06 51°10.324 2°43.088 247.7 14 245.7 7.3
2002-08-26 07:25:11 51°10.315 2°43.06 247 14.2 245.1 7.3
2002-08-26 07:25:16 51°10.309 2°43.031 251.3 14 248.2 7.4
2002-08-26 07:25:21 51°10.301 2°43.003 248.7 13.9 247.7 7.5
2002-08-26 07:25:26 51°10.293 2°42.974 249.8 14.1 247.5 7.5
2002-08-26 07:25:31 51°10.286 2°42.945 249.8 14.1 247.7 7.6
2002-08-26 07:25:36 51°10.278 2°42.918 248.2 14 246.8 7.6
2002-08-26 07:25:40 51°10.273 2°42.894 249.3 14.1 247.5 7.5
2002-08-26 07:25:46 51°10.263 2°42.86 249 14 246.2 7.5
2002-08-26 07:25:51 51°10.255 2°42.832 248 14 246 7.4
2002-08-26 07:25:56 51°10.248 2°42.803 249.3 13.9 247.3 7.5
2002-08-26 07:26:00 51°10.241 2°42.782 247 13.9 245.5 7.5
2002-08-26 07:26:04 51°10.235 2°42.758 250 13.9 248.2 7.5
2002-08-26 07:26:11 51°10.224 2°42.719 247.5 14 246.5 7.3
2002-08-26 07:26:16 51°10.219 2°42.688 251.7 14.2 250 7.4
2002-08-26 07:26:19 51°10.215 2°42.671 252.2 14.1 250.2 7.4
2002-08-26 07:26:23 51°10.209 2°42.649 251.3 14 249.3 7.4
2002-08-26 07:26:31 51°10.199 2°42.602 253 14 250.4 7.4
2002-08-26 07:26:36 51°10.191 2°42.573 251 13.9 249.4 7.4
2002-08-26 07:26:42 51°10.183 2°42.539 252.3 13.9 249.8 7.4
2002-08-26 07:26:46 51°10.177 2°42.516 250.5 13.9 248.6 7.4
2002-08-26 07:26:52 51°10.169 2°42.482 249.8 14 248.1 7.3
2002-08-26 07:26:56 51°10.163 2°42.459 250 14 247.9 7.3
2002-08-26 07:27:00 51°10.157 2°42.436 249.8 14 248.5 7.3
2002-08-26 07:27:04 51°10.151 2°42.413 250.2 14 248.6 7.3
2002-08-26 07:27:11 51°10.141 2°42.373 249.7 13.9 248.7 7.4
2002-08-26 07:27:16 51°10.135 2°42.344 251 13.8 249.7 7.3
2002-08-26 07:27:22 51°10.125 2°42.31 249.5 13.8 247.8 7.3
2002-08-26 07:27:26 51°10.121 2°42.287 250.3 14 249.6 7.2
2002-08-26 07:27:31 51°10.113 2°42.258 250 14 248.8 7.2
2002-08-26 07:27:36 51°10.107 2°42.23 251.5 13.9 249.8 7.2
2002-08-26 07:27:40 51°10.102 2°42.207 252.5 13.8 250.6 7.2
2002-08-26 07:27:46 51°10.095 2°42.171 253.2 13.9 252 7.2
2002-08-26 07:27:51 51°10.09 2°42.142 255.8 14 253.7 7.2
2002-08-26 07:27:56 51°10.084 2°42.113 255.2 13.9 253.2 7.4
2002-08-26 07:28:01 51°10.078 2°42.083 255.5 13.8 252.8 7.2
2002-08-26 07:28:06 51°10.073 2°42.054 256.2 13.9 253 7.2
2002-08-26 07:28:11 51°10.067 2°42.024 255.2 13.9 253 7.2
2002-08-26 07:28:16 51°10.061 2°41.996 254 13.8 252 7.2
2002-08-26 07:28:20 51°10.057 2°41.972 255 13.9 253.3 7.1
2002-08-26 07:28:27 51°10.049 2°41.932 254.7 13.8 252.3 7.2
2002-08-26 07:28:31 51°10.042 2°41.91 252.3 13.8 249.4 7.1
2002-08-26 07:28:36 51°10.037 2°41.88 253.3 13.9 251.6 7.1
2002-08-26 07:28:40 51°10.031 2°41.857 252.7 13.9 250.4 7.3
2002-08-26 07:28:46 51°10.023 2°41.823 251.7 13.7 249.4 7.3
2002-08-26 07:28:51 51°10.017 2°41.794 251.2 13.7 250.1 7.2
2002-08-26 07:28:56 51°10.011 2°41.765 254 13.8 252 7.2
2002-08-26 07:28:59 51°10.008 2°41.747 254.2 13.9 252.2 7.2
2002-08-26 07:29:06 51°10.002 2°41.706 258 13.8 256.5 7.2
2002-08-26 07:29:11 51°9.995 2°41.677 257 13.8 254.7 7.1
2002-08-26 07:29:16 51°9.993 2°41.646 261 13.9 259.2 7.1
2002-08-26 07:29:20 51°9.99 2°41.622 261.7 13.9 258.6 7.3
2002-08-26 07:29:26 51°9.986 2°41.587 262.2 13.8 259.8 7.2
2002-08-26 07:29:32 51°9.981 2°41.551 263.3 13.8 259.5 7.2
2002-08-26 07:29:36 51°9.978 2°41.527 261.5 13.8 258.3 7.2
2002-08-26 07:29:40 51°9.975 2°41.503 261 13.8 257.9 7.2
2002-08-26 07:29:44 51°9.972 2°41.479 261.2 13.9 258.4 7.3
2002-08-26 07:29:51 51°9.967 2°41.437 261.3 13.8 258.6 7.2
2002-08-26 07:29:56 51°9.962 2°41.407 259.5 13.9 257.3 7.2
2002-08-26 07:30:00 51°9.961 2°41.382 262.7 14 259.5 7.2
2002-08-26 07:30:06 51°9.956 2°41.346 262.2 14 259 7.3
2002-08-26 07:30:12 51°9.953 2°41.31 264.2 14 260.2 7.4
2002-08-26 07:30:16 51°9.949 2°41.286 262.8 13.9 259.9 7.3
2002-08-26 07:30:20 51°9.947 2°41.262 264.3 13.9 261.2 7.4
2002-08-26 07:30:26 51°9.942 2°41.225 262.5 13.9 259.2 7.4
2002-08-26 07:30:31 51°9.941 2°41.195 263.8 13.9 261.5 7.4
2002-08-26 07:30:36 51°9.935 2°41.165 261.8 14 259 7.4
2002-08-26 07:30:40 51°9.933 2°41.14 262.2 14 258.2 7.5
2002-08-26 07:30:46 51°9.929 2°41.103 262.7 14 259.8 7.6
2002-08-26 07:30:51 51°9.924 2°41.074 261 14 258.5 7.6
2002-08-26 07:30:56 51°9.921 2°41.043 260.7 14 258.6 7.6
2002-08-26 07:31:00 51°9.917 2°41.018 261 14.1 258.2 7.6
2002-08-26 07:31:04 51°9.914 2°40.994 262.2 14.1 259.1 7.7
2002-08-26 07:31:11 51°9.909 2°40.952 260.8 14 258.1 7.8
2002-08-26 07:31:16 51°9.905 2°40.921 260.8 14.1 258.5 7.8
2002-08-26 07:31:20 51°9.902 2°40.896 263.7 14.3 261 7.8
2002-08-26 07:31:25 51°9.899 2°40.865 261.8 14.3 258.9 7.9
2002-08-26 07:31:31 51°9.896 2°40.827 263.7 14.3 261.3 7.8
2002-08-26 07:31:36 51°9.892 2°40.796 264.7 14.3 261.6 7.9
2002-08-26 07:31:39 51°9.89 2°40.778 261.8 14.2 259.3 8
2002-08-26 07:31:43 51°9.886 2°40.753 263.2 14.2 260.1 7.8
2002-08-26 07:31:51 51°9.88 2°40.703 261.3 14.4 258 7.7
2002-08-26 07:31:56 51°9.876 2°40.672 260.3 14.5 257.6 7.9
2002-08-26 07:32:01 51°9.871 2°40.641 258.8 14.5 256.2 8
2002-08-26 07:32:06 51°9.867 2°40.61 259.8 14.4 257 7.9
2002-08-26 07:32:11 51°9.863 2°40.579 258.7 14.4 256.6 8.1
2002-08-26 07:32:16 51°9.858 2°40.548 260.3 14.5 257.9 8.1
2002-08-26 07:32:20 51°9.855 2°40.522 260.8 14.5 258.6 8.1
2002-08-26 07:32:26 51°9.851 2°40.484 262.2 14.5 259.5 8.1
2002-08-26 07:32:32 51°9.847 2°40.447 262.8 14.5 260.1 8.1
2002-08-26 07:32:36 51°9.845 2°40.421 263.2 14.5 260.9 8.2
2002-08-26 07:32:40 51°9.842 2°40.396 263.3 14.5 260.5 8.2
2002-08-26 07:32:44 51°9.839 2°40.371 263.2 14.5 260.4 8.3
2002-08-26 07:32:51 51°9.835 2°40.326 265.3 14.6 260.9 8.2
2002-08-26 07:32:56 51°9.83 2°40.295 262.7 14.5 259 8.1
2002-08-26 07:33:00 51°9.828 2°40.269 262.2 14.5 259.8 8.2
2002-08-26 07:33:06 51°9.823 2°40.232 261.8 14.7 258.6 8.3
2002-08-26 07:33:11 51°9.821 2°40.199 262.8 14.7 260.5 8.4
2002-08-26 07:33:16 51°9.817 2°40.168 262.7 14.6 259.2 8.4
2002-08-26 07:33:19 51°9.814 2°40.149 262.5 14.6 259.4 8.5
2002-08-26 07:33:24 51°9.81 2°40.117 263 14.7 259.6 8.5
2002-08-26 07:33:31 51°9.806 2°40.072 263 14.7 260.3 8.5
2002-08-26 07:33:36 51°9.801 2°40.04 262.2 14.7 259.4 8.5
2002-08-26 07:33:42 51°9.797 2°40.002 261.5 14.7 258.9 8.6
2002-08-26 07:33:46 51°9.795 2°39.976 262.2 14.7 260.3 8.7
2002-08-26 07:33:51 51°9.79 2°39.945 261.5 14.7 258.8 8.8
2002-08-26 07:33:56 51°9.788 2°39.913 262.7 14.6 260.2 8.7
2002-08-26 07:34:00 51°9.783 2°39.888 263 14.7 260.1 8.6
2002-08-26 07:34:06 51°9.781 2°39.849 263.8 14.7 260.7 8.7
2002-08-26 07:34:11 51°9.777 2°39.816 263.2 14.8 260.7 8.7
2002-08-26 07:34:16 51°9.774 2°39.784 263.8 14.7 260.5 8.8
2002-08-26 07:34:20 51°9.771 2°39.759 262.8 14.8 260 8.8
2002-08-26 07:34:26 51°9.766 2°39.72 263.8 14.8 260.3 8.9
2002-08-26 07:34:31 51°9.762 2°39.688 261.7 14.8 259.2 8.8
2002-08-26 07:34:36 51°9.76 2°39.656 264.3 14.8 261.3 8.8
2002-08-26 07:34:40 51°9.756 2°39.63 262.5 14.8 259.8 8.8
2002-08-26 07:34:47 51°9.753 2°39.585 263.7 14.8 261.5 8.9
2002-08-26 07:34:51 51°9.749 2°39.559 263.2 14.8 260 9
2002-08-26 07:34:56 51°9.746 2°39.526 263.3 15 259.9 9.1
2002-08-26 07:35:01 51°9.743 2°39.494 264.7 14.9 261.1 9.1
2002-08-26 07:35:06 51°9.738 2°39.462 262.3 14.8 259 9.1
2002-08-26 07:35:11 51°9.737 2°39.429 264.2 14.8 261.6 9.1
2002-08-26 07:35:16 51°9.731 2°39.398 262.2 14.9 259.3 9
2002-08-26 07:35:20 51°9.73 2°39.371 263 14.9 260.3 9
2002-08-26 07:35:26 51°9.724 2°39.333 263.7 14.9 260.1 9
2002-08-26 07:35:32 51°9.72 2°39.294 262.8 14.9 259.6 9
2002-08-26 07:35:36 51°9.718 2°39.268 262.3 14.9 260.1 9.1
2002-08-26 07:35:40 51°9.714 2°39.242 263.2 14.9 259.5 9.3
2002-08-26 07:35:44 51°9.712 2°39.216 263.2 15 260.7 9.3
2002-08-26 07:35:51 51°9.706 2°39.171 263.3 15 259.8 9.5
2002-08-26 07:35:56 51°9.703 2°39.138 263.3 14.9 260 9.6
2002-08-26 07:36:02 51°9.699 2°39.099 263.5 14.9 260.3 9.4
2002-08-26 07:36:06 51°9.696 2°39.073 263.5 14.9 260.4 9.6
2002-08-26 07:36:11 51°9.693 2°39.04 263.7 15 260.8 9.7
2002-08-26 07:36:16 51°9.69 2°39.007 263.8 15 260.8 9.5
2002-08-26 07:36:20 51°9.686 2°38.981 264 15.1 260.4 9.6
2002-08-26 07:36:26 51°9.682 2°38.942 263.5 15 260.4 9.6
2002-08-26 07:36:31 51°9.678 2°38.91 262.3 14.9 259.3 9.7
2002-08-26 07:36:36 51°9.675 2°38.877 262.8 15 260.2 9.7
2002-08-26 07:36:39 51°9.672 2°38.857 262.8 15 259.7 9.8
2002-08-26 07:36:43 51°9.67 2°38.831 262.8 15 260.1 9.8
2002-08-26 07:36:51 51°9.664 2°38.779 262.8 15 260.1 9.9
2002-08-26 07:36:56 51°9.661 2°38.747 262.8 14.9 260.5 9.9
2002-08-26 07:37:00 51°9.657 2°38.721 262 14.9 259 9.9
2002-08-26 07:37:06 51°9.654 2°38.682 262.5 15 259.6 9.9
2002-08-26 07:37:11 51°9.648 2°38.65 261.2 15 258.3 9.9
2002-08-26 07:37:16 51°9.645 2°38.617 261.8 15 259.1 9.9
2002-08-26 07:37:20 51°9.642 2°38.591 264.3 14.8 261.2 9.9
2002-08-26 07:37:25 51°9.638 2°38.56 261.8 14.8 258.5 9.9
2002-08-26 07:37:31 51°9.635 2°38.52 264.5 14.8 260.4 9.9
2002-08-26 07:37:36 51°9.632 2°38.488 265.3 14.8 263.1 10.1
2002-08-26 07:37:42 51°9.628 2°38.449 263.8 14.9 261.2 10.1
2002-08-26 07:37:46 51°9.624 2°38.423 263.5 14.9 260 10.3
2002-08-26 07:37:51 51°9.622 2°38.391 264.7 14.9 261.2 10.3
2002-08-26 07:37:56 51°9.617 2°38.359 261.8 14.8 258.8 10.3
2002-08-26 07:37:59 51°9.616 2°38.34 264.8 14.8 261.3 10.3
2002-08-26 07:38:07 51°9.609 2°38.288 262.2 14.9 258.6 10.4
2002-08-26 07:38:11 51°9.609 2°38.262 264.8 14.8 262.3 10.5
2002-08-26 07:38:16 51°9.603 2°38.23 262 14.8 259 10.6
2002-08-26 07:38:20 51°9.603 2°38.204 266 14.8 262.5 10.6
2002-08-26 07:38:27 51°9.597 2°38.159 264.3 14.9 260.7 10.7
2002-08-26 07:38:31 51°9.597 2°38.133 266 14.8 263.2 10.8
2002-08-26 07:38:36 51°9.592 2°38.101 264.5 14.8 261.4 10.7
2002-08-26 07:38:40 51°9.592 2°38.075 265.3 14.8 263.5 10.9
2002-08-26 07:38:47 51°9.587 2°38.029 265.3 14.9 261.9 11
2002-08-26 07:38:51 51°9.585 2°38.003 265.2 14.9 262.3 11.2
2002-08-26 07:38:56 51°9.582 2°37.971 266.3 14.9 263.1 11.3
2002-08-26 07:39:00 51°9.581 2°37.945 265.2 14.8 263.1 11.3
2002-08-26 07:39:04 51°9.577 2°37.919 266.8 14.8 264 11.5
2002-08-26 07:39:11 51°9.574 2°37.873 265 14.9 262.2 11.5
2002-08-26 07:39:16 51°9.574 2°37.84 267.5 14.9 264.8 11.7
2002-08-26 07:39:21 51°9.569 2°37.808 265.7 14.8 261.7 11.8
2002-08-26 07:39:26 51°9.568 2°37.776 267.5 14.8 264.5 11.8
2002-08-26 07:39:31 51°9.565 2°37.743 266.7 14.9 263.2 12
2002-08-26 07:39:36 51°9.564 2°37.71 267.7 14.8 264.6 12.1
2002-08-26 07:39:40 51°9.561 2°37.685 266.8 14.9 262.1 12.3
2002-08-26 07:39:43 51°9.559 2°37.665 267.7 14.9 264.7 12.4
2002-08-26 07:39:51 51°9.555 2°37.613 267 14.8 263.3 12.5
2002-08-26 07:39:56 51°9.553 2°37.58 266.2 14.8 262.5 12.6
2002-08-26 07:39:59 51°9.552 2°37.561 268.5 14.8 264.1 12.7
2002-08-26 07:40:07 51°9.547 2°37.509 265 14.8 261.7 12.8
2002-08-26 07:40:11 51°9.544 2°37.483 264.5 14.8 261.5 12.8
2002-08-26 07:40:16 51°9.541 2°37.451 265.5 14.9 261.7 12.8
2002-08-26 07:40:21 51°9.538 2°37.419 265.2 14.9 261.4 13
2002-08-26 07:40:24 51°9.537 2°37.399 265.5 14.9 262.3 13.2
2002-08-26 07:40:31 51°9.532 2°37.353 265 15 261.2 13.4
2002-08-26 07:40:36 51°9.531 2°37.32 265.5 15 262.2 13.6
2002-08-26 07:40:40 51°9.526 2°37.294 265.7 15.1 262 13.9
2002-08-26 07:40:46 51°9.525 2°37.254 266 15.1 262.4 14.1
2002-08-26 07:40:51 51°9.522 2°37.221 267 15.1 262.4 14.2
2002-08-26 07:40:56 51°9.52 2°37.188 267.3 15.1 263.7 14.3
2002-08-26 07:41:00 51°9.516 2°37.162 265.3 15.1 261.4 14.2
2002-08-26 07:41:07 51°9.514 2°37.116 266.3 15.1 263.3 14.4
2002-08-26 07:41:11 51°9.51 2°37.09 265 15 261.7 14.6
2002-08-26 07:41:16 51°9.508 2°37.057 266.5 15 262.7 14.8
2002-08-26 07:41:20 51°9.506 2°37.03 266.7 15 263 14.7
2002-08-26 07:41:25 51°9.503 2°36.998 266.2 15 262.4 14.7
2002-08-26 07:41:31 51°9.5 2°36.958 267.2 15 262.7 14.8
2002-08-26 07:41:36 51°9.498 2°36.925 266.7 15 263.4 14.8
2002-08-26 07:41:41 51°9.495 2°36.892 268.2 15.2 264 14.7
2002-08-26 07:41:44 51°9.495 2°36.872 269.5 15.1 265.7 14.7
2002-08-26 07:41:51 51°9.491 2°36.826 268.2 15 263.5 14.7
2002-08-26 07:41:56 51°9.492 2°36.792 271.3 15 266.8 14.6
2002-08-26 07:42:00 51°9.489 2°36.766 269.2 15.2 264.4 14.5
2002-08-26 07:42:06 51°9.488 2°36.726 270.7 15 266.9 14.4
2002-08-26 07:42:11 51°9.486 2°36.693 270.8 15 266.3 14.3
2002-08-26 07:42:16 51°9.487 2°36.66 273.7 15 269.7 14.3
2002-08-26 07:42:19 51°9.487 2°36.64 273.8 15 269.4 14.2
2002-08-26 07:42:26 51°9.487 2°36.594 276.7 14.9 272 14.6
2002-08-26 07:42:31 51°9.487 2°36.561 275 14.9 270.1 14.3
2002-08-26 07:42:36 51°9.49 2°36.528 279 14.9 274.1 14.8
2002-08-26 07:42:39 51°9.49 2°36.508 278.3 15 272.9 15
2002-08-26 07:42:47 51°9.494 2°36.456 280.8 14.9 276.3 15.1
2002-08-26 07:42:51 51°9.494 2°36.429 281.8 15 276 15.1
2002-08-26 07:42:56 51°9.5 2°36.398 286.8 14.8 281.3 14.7
2002-08-26 07:43:00 51°9.502 2°36.372 288 14.9 281 14.8
2002-08-26 07:43:07 51°9.512 2°36.33 294.8 14.6 287.4 15.2
2002-08-26 07:43:11 51°9.516 2°36.304 294 14.6 287 15.5
2002-08-26 07:43:16 51°9.523 2°36.275 297.8 14.4 290.5 15.3
2002-08-26 07:43:21 51°9.532 2°36.246 300.5 14.4 293.6 15.3
2002-08-26 07:43:26 51°9.539 2°36.217 301.8 14.4 294.6 15.3
2002-08-26 07:43:31 51°9.55 2°36.191 308.2 14.2 299.6 15.4
2002-08-26 07:43:36 51°9.561 2°36.165 312.7 14.1 303.5 15.6
2002-08-26 07:43:40 51°9.571 2°36.146 318.7 14 307.6 15.4
2002-08-26 07:43:46 51°9.587 2°36.119 321 13.9 311.2 16.2
2002-08-26 07:43:51 51°9.6 2°36.098 324.8 13.8 314.2 15.7
2002-08-26 07:43:56 51°9.614 2°36.077 325.8 13.9 316 16.5
2002-08-26 07:44:00 51°9.625 2°36.061 328.8 13.8 318.5 15.9
2002-08-26 07:44:06 51°9.643 2°36.037 329 13.8 319.1 16.1
2002-08-26 07:44:11 51°9.658 2°36.019 331.3 13.8 320.7 16.2
2002-08-26 07:44:16 51°9.674 2°36.001 333.7 13.7 323.2 16.9
2002-08-26 07:44:20 51°9.686 2°35.987 336.7 13.6 326 16.3
2002-08-26 07:44:26 51°9.706 2°35.969 338.2 13.6 327.9 16.9
2002-08-26 07:44:31 51°9.722 2°35.955 341.8 13.5 330.4 16.7
2002-08-26 07:44:36 51°9.739 2°35.941 342.2 13.4 331.9 16.8
2002-08-26 07:44:39 51°9.748 2°35.933 345.3 13.4 333.3 16.5
2002-08-26 07:44:43 51°9.762 2°35.925 345.2 13.3 335 16.9
2002-08-26 07:44:51 51°9.789 2°35.905 346.2 13.2 334.8 16.8
2002-08-26 07:44:56 51°9.806 2°35.894 347.2 13.2 336.3 17
2002-08-26 07:45:01 51°9.822 2°35.881 347.2 13.2 336 17
2002-08-26 07:45:06 51°9.84 2°35.871 347.2 13.2 337 17
2002-08-26 07:45:11 51°9.856 2°35.858 347.2 13.3 335.8 17.4
2002-08-26 07:45:16 51°9.873 2°35.848 347.7 13.3 337.5 17.4
2002-08-26 07:45:22 51°9.894 2°35.833 347 13.4 337.2 17.3
2002-08-26 07:45:26 51°9.908 2°35.825 347.3 13.4 338 17.2
2002-08-26 07:45:31 51°9.925 2°35.814 349.8 13.3 339.5 17.1
2002-08-26 07:45:36 51°9.942 2°35.805 350.7 13.2 341 16.8
2002-08-26 07:45:40 51°9.956 2°35.798 351.8 13.1 342.4 16.7
2002-08-26 07:45:46 51°9.977 2°35.79 356.2 13.1 345.8 16.4
2002-08-26 07:45:51 51°9.995 2°35.786   13 349.8 16.1
2002-08-26 07:45:56 51°10.012 2°35.783 3.3 12.8 353.4 15.9
2002-08-26 07:46:00 51°10.026 2°35.781 5.5 12.7 356.2 15.4
2002-08-26 07:46:04 51°10.04 2°35.781 7 12.6 358.4 14.9
2002-08-26 07:46:11 51°10.065 2°35.781 8.5 12.6 0.6 14.3
2002-08-26 07:46:16 51°10.082 2°35.783 11.3 12.5 3.7 13.6
2002-08-26 07:46:19 51°10.092 2°35.787 19.3 12.2 9.9 13.1
2002-08-26 07:46:27 51°10.117 2°35.799 21.3 12.1 14.4 12.7
2002-08-26 07:46:31 51°10.13 2°35.807 25.5 12 19.2 11.6
2002-08-26 07:46:36 51°10.145 2°35.817 27.7 12 21.2 11.6
2002-08-26 07:46:39 51°10.154 2°35.823 30.2 12 23.4 10.7
2002-08-26 07:46:47 51°10.179 2°35.841 30.7 12.1 24.7 10.3
2002-08-26 07:46:51 51°10.19 2°35.852 32.7 12 26.5 10.1
2002-08-26 07:46:56 51°10.205 2°35.864 32.8 12 27.2 9.9
2002-08-26 07:47:00 51°10.217 2°35.874 33.8 12 28.8 9.4
2002-08-26 07:47:06 51°10.235 2°35.889 33.2 12.1 27.8 9.1
2002-08-26 07:47:11 51°10.249 2°35.902 33.5 12.2 28.7 9.2
2002-08-26 07:47:16 51°10.264 2°35.914 32.7 12.2 27.5 8.8
2002-08-26 07:47:19 51°10.273 2°35.922 32.8 12.2 28.2 9
2002-08-26 07:47:24 51°10.288 2°35.935 32.3 12.2 27.6 9
2002-08-26 07:47:31 51°10.309 2°35.953 33.3 12.3 28.6 9.3
2002-08-26 07:47:36 51°10.325 2°35.965 32 12.4 27.4 9.2
2002-08-26 07:47:40 51°10.337 2°35.976 32.5 12.4 27.7 9.1
2002-08-26 07:47:46 51°10.355 2°35.99 31.8 12.5 26.9 9.3
2002-08-26 07:47:51 51°10.371 2°36.003 31.8 12.5 27.4 9.2
2002-08-26 07:47:56 51°10.386 2°36.015 31 12.5 26.4 9.3
2002-08-26 07:48:02 51°10.405 2°36.03 31.5 12.5 26.9 9.3
2002-08-26 07:48:06 51°10.418 2°36.039 30.7 12.5 25.7 9.5
2002-08-26 07:48:11 51°10.433 2°36.052 31.2 12.6 26.3 9.5
2002-08-26 07:48:16 51°10.449 2°36.063 30 12.6 25 9.3
2002-08-26 07:48:20 51°10.461 2°36.074 30.7 12.6 25.9 9
2002-08-26 07:48:26 51°10.481 2°36.087 29.7 12.5 24.8 9.3
2002-08-26 07:48:31 51°10.496 2°36.1 30.7 12.5 25.8 9.2
2002-08-26 07:48:36 51°10.512 2°36.11 29.7 12.5 24.9 9.2
2002-08-26 07:48:40 51°10.524 2°36.121 29.8 12.5 25.6 9.1
2002-08-26 07:48:46 51°10.543 2°36.134 29.3 12.6 24.5 9.4
2002-08-26 07:48:52 51°10.562 2°36.148 29.7 12.6 24.6 9.5
2002-08-26 07:48:56 51°10.575 2°36.156 29.3 12.6 24.5 9.2
2002-08-26 07:49:00 51°10.587 2°36.167 29.5 12.6 25 9.5
2002-08-26 07:49:07 51°10.61 2°36.183 29.3 12.6 24.6 9.5
2002-08-26 07:49:11 51°10.622 2°36.192 30 12.6 25.5 9.3
2002-08-26 07:49:16 51°10.638 2°36.203 29.3 12.5 24.8 9.4
2002-08-26 07:49:22 51°10.657 2°36.217 29.3 12.5 25 9.6
2002-08-26 07:49:26 51°10.67 2°36.225 28.5 12.5 24.3 9.7
2002-08-26 07:49:31 51°10.685 2°36.238 29.3 12.5 24.3 9.7
2002-08-26 07:49:36 51°10.701 2°36.248 29 12.5 24.3 9.5
2002-08-26 07:49:40 51°10.714 2°36.258 28.7 12.5 24.8 10
2002-08-26 07:49:46 51°10.733 2°36.27 29.2 12.5 24.3 9.7
2002-08-26 07:49:51 51°10.749 2°36.282 28 12.5 22.9 10
2002-08-26 07:49:56 51°10.765 2°36.292 28.2 12.5 23.6 10.2
2002-08-26 07:50:00 51°10.778 2°36.302 28 12.5 23.4 10.3
2002-08-26 07:50:06 51°10.797 2°36.315 29 12.5 24.1 10.3
2002-08-26 07:50:11 51°10.813 2°36.326 28.8 12.6 23.8 10.4
2002-08-26 07:50:16 51°10.829 2°36.338 30 12.6 25.1 10.3
2002-08-26 07:50:20 51°10.841 2°36.348 30.7 12.6 25.8 10.3
2002-08-26 07:50:25 51°10.857 2°36.36 32.5 12.5 27.4 10.4
2002-08-26 07:50:31 51°10.875 2°36.376 31.7 12.5 27.5 10.4
2002-08-26 07:50:36 51°10.89 2°36.388 32.8 12.5 27.3 10.6
2002-08-26 07:50:40 51°10.902 2°36.399 32.2 12.4 27.1 10.5
2002-08-26 07:50:46 51°10.92 2°36.414 33.7 12.4 29.1 10.7
2002-08-26 07:50:51 51°10.935 2°36.427 32.8 12.3 27.8 10.6
2002-08-26 07:50:56 51°10.95 2°36.44 34.2 12.3 29.5 10.4
2002-08-26 07:51:01 51°10.965 2°36.453 32.7 12.3 27.9 10.8
2002-08-26 07:51:06 51°10.98 2°36.467 34.2 12.2 29.6 10.9
2002-08-26 07:51:11 51°10.995 2°36.479 32.5 12.2 28.4 11
2002-08-26 07:51:16 51°11.01 2°36.492 33.5 12.3 29.2 10.8
2002-08-26 07:51:20 51°11.022 2°36.502 32.3 12.3 27.4 11
2002-08-26 07:51:26 51°11.04 2°36.518 34 12.3 29.7 10.9
2002-08-26 07:51:31 51°11.055 2°36.53 32.2 12.2 28.4 10.8
2002-08-26 07:51:40 51°11.082 2°36.554 33.5 12.3 28.4 10.9
2002-08-26 07:51:45 51°11.097 2°36.567 33.3 12.3 27.9 11.2
2002-08-26 07:51:50 51°11.112 2°36.58 33.2 12.3 28.3 11
2002-08-26 07:51:55 51°11.127 2°36.593 33.3 12.3 28.4 11.2
2002-08-26 07:52:00 51°11.142 2°36.606 33 12.3 28.5 11.1
2002-08-26 07:52:05 51°11.157 2°36.618 33.3 12.3 28.6 11.3
2002-08-26 07:52:10 51°11.172 2°36.632 33.3 12.3 28.8 11.2
2002-08-26 07:52:15 51°11.187 2°36.644 33.2 12.4 27.6 11.1
2002-08-26 07:52:20 51°11.202 2°36.658 33.3 12.3 28.3 11.2
2002-08-26 07:52:24 51°11.214 2°36.667 32.7 12.2 27.4 11.3
2002-08-26 07:52:31 51°11.235 2°36.685 32.8 12.3 28 11.3
2002-08-26 07:52:35 51°11.247 2°36.695 32.5 12.3 27.7 11.2
2002-08-26 07:52:40 51°11.262 2°36.708 32.8 12.3 27.6 11.3
2002-08-26 07:52:45 51°11.277 2°36.72 32.5 12.3 27.1 11.2
2002-08-26 07:52:50 51°11.292 2°36.733 32.7 12.3 27.5 11.2
2002-08-26 07:52:55 51°11.307 2°36.746 32.7 12.3 28 11.3
2002-08-26 07:53:00 51°11.322 2°36.759 33 12.2 28 11.3
2002-08-26 07:53:05 51°11.337 2°36.771 33 12.2 27.6 11.4
2002-08-26 07:53:11 51°11.355 2°36.787 33 12.2 28.4 11.4
2002-08-26 07:53:15 51°11.367 2°36.797 33.8 12.2 28.4 11.4
2002-08-26 07:53:20 51°11.382 2°36.811 33.5 12.2 28.5 11.4
2002-08-26 07:53:24 51°11.394 2°36.82 34.2 12.3 28.5 11.3
2002-08-26 07:53:31 51°11.415 2°36.839 34 12.3 29.3 11.4
2002-08-26 07:53:35 51°11.426 2°36.85 34.3 12.3 29.1 11.2
2002-08-26 07:53:40 51°11.441 2°36.863 33.2 12.2 28.3 11.3
2002-08-26 07:53:45 51°11.456 2°36.876 33.5 12.2 28.4 11.5
2002-08-26 07:53:50 51°11.471 2°36.888 32.7 12.2 27.8 11.4
2002-08-26 07:53:55 51°11.486 2°36.901 33.7 12.2 29 11.5
2002-08-26 07:54:00 51°11.501 2°36.913 32.8 12.2 27.7 11.5
2002-08-26 07:54:05 51°11.516 2°36.926 33.5 12.2 28.4 11.5
2002-08-26 07:54:10 51°11.531 2°36.938 33 12.2 27.4 11.2
2002-08-26 07:54:15 51°11.546 2°36.952 33.7 12.2 28.5 11.4
2002-08-26 07:54:20 51°11.561 2°36.963 32.7 12.2 27.5 11.5
2002-08-26 07:54:25 51°11.576 2°36.977 33.2 12.2 28.1 11.5
2002-08-26 07:54:30 51°11.591 2°36.989 33 12.3 27.4 11.4
2002-08-26 07:54:35 51°11.606 2°37.002 33 12.3 28.3 11.4
2002-08-26 07:54:40 51°11.621 2°37.013 32.3 12.2 27.1 11.5
2002-08-26 07:54:45 51°11.635 2°37.027 33.3 12.2 28.5 11.4
2002-08-26 07:54:51 51°11.654 2°37.041 32.5 12.2 27.5 11.5
2002-08-26 07:54:55 51°11.665 2°37.053 33.7 12.2 28.8 11.4
2002-08-26 07:55:00 51°11.681 2°37.064 32.7 12.2 27.4 11.2
2002-08-26 07:55:04 51°11.692 2°37.075 33.3 12.2 28.6 11.2
2002-08-26 07:55:11 51°11.713 2°37.092 32.7 12.2 27.4 11.3
2002-08-26 07:55:15 51°11.725 2°37.103 33.5 12.2 28.4 11.2
2002-08-26 07:55:20 51°11.74 2°37.115 33.2 12.2 27.6 11.1
2002-08-26 07:55:24 51°11.752 2°37.125 33.2 12.2 28.4 11.2
2002-08-26 07:55:31 51°11.773 2°37.143 33.2 12.2 27.8 11
2002-08-26 07:55:35 51°11.785 2°37.152 33 12.3 27.9 11.1
2002-08-26 07:55:40 51°11.8 2°37.165 33.2 12.1 28.2 11.1
2002-08-26 07:55:45 51°11.815 2°37.178 32.8 12.1 28.5 11
2002-08-26 07:55:50 51°11.83 2°37.19 33.3 12.1 27.9 11
2002-08-26 07:55:55 51°11.845 2°37.203 33.3 12.1 28 11.2
2002-08-26 07:56:00 51°11.859 2°37.215 33.2 12.1 27.8 11
2002-08-26 07:56:05 51°11.874 2°37.228 33.2 12.1 27.7 11.2
2002-08-26 07:56:07 51°11.88 2°37.232 33.3 12.2 27.4 11.1
2002-08-26 07:56:15 51°11.904 2°37.253 33.7 12.1 28.3 11
2002-08-26 07:56:20 51°11.919 2°37.265 33 12.2 27.9 11
2002-08-26 07:56:24 51°11.931 2°37.276 33.8 12.2 28.2 11
2002-08-26 07:56:31 51°11.952 2°37.293 33 12.2 27.6 11
2002-08-26 07:56:35 51°11.963 2°37.304 34 12.2 28.1 11
2002-08-26 07:56:40 51°11.979 2°37.315 32.3 12.2 26.5 11.2
2002-08-26 07:56:45 51°11.994 2°37.328 33.3 12.2 27.4 11
2002-08-26 07:56:50 51°12.009 2°37.34 32.7 12.2 26.8 11
2002-08-26 07:56:55 51°12.024 2°37.354 33.5 12.2 28.3 10.8
2002-08-26 07:57:00 51°12.039 2°37.366 32.5 12.2 27.3 11
2002-08-26 07:57:05 51°12.053 2°37.379 34 12.2 28.3 11
2002-08-26 07:57:11 51°12.072 2°37.393 32.5 12.2 26.9 10.9
2002-08-26 07:57:15 51°12.083 2°37.404 33.7 12.2 28 10.9
2002-08-26 07:57:20 51°12.099 2°37.415 32.2 12.2 26.5 11
2002-08-26 07:57:24 51°12.111 2°37.426 33.3 12.2 28 10.9
2002-08-26 07:57:31 51°12.132 2°37.443 32.2 12.2 26.5 10.8
2002-08-26 07:57:35 51°12.144 2°37.454 33 12.2 27.7 10.9
2002-08-26 07:57:40 51°12.159 2°37.464 31.7 12.3 25.8 10.8
2002-08-26 07:57:45 51°12.174 2°37.477 32.2 12.3 26.6 10.9
2002-08-26 07:57:50 51°12.19 2°37.487 31 12.2 25.1 10.7
2002-08-26 07:57:55 51°12.205 2°37.5 31.8 12.2 26.1 10.8
2002-08-26 07:58:00 51°12.22 2°37.511 30.3 12.2 24.3 10.6
2002-08-26 07:58:05 51°12.235 2°37.523 31.5 12.2 25.3 10.7
2002-08-26 07:58:10 51°12.251 2°37.533 30 12.2 23.9 10.9
2002-08-26 07:58:15 51°12.266 2°37.545 31.5 12.2 25 11
2002-08-26 07:58:20 51°12.282 2°37.555 30.3 12.2 24.1 10.8
2002-08-26 07:58:25 51°12.297 2°37.568 31.7 12.2 25.7 10.8
2002-08-26 07:58:30 51°12.313 2°37.578 30 12.2 23.6 10.9
2002-08-26 07:58:35 51°12.327 2°37.59 31.7 12.2 25.3 10.8
2002-08-26 07:58:40 51°12.343 2°37.6 29.3 12.2 23.3 10.9
2002-08-26 07:58:44 51°12.355 2°37.61 31.7 12.2 25.3 10.7
2002-08-26 07:58:51 51°12.377 2°37.625 30.3 12.2 24 11
2002-08-26 07:58:55 51°12.389 2°37.636 32 12.2 25.5 11
2002-08-26 07:59:00 51°12.405 2°37.646 30.8 12.2 24.4 11.1
2002-08-26 07:59:04 51°12.417 2°37.656 31.7 12.2 25.1 11
2002-08-26 07:59:10 51°12.436 2°37.668 30.2 12.2 23.6 11
2002-08-26 07:59:15 51°12.451 2°37.68 31.5 12.2 24.7 11
2002-08-26 07:59:20 51°12.466 2°37.691 30.3 12.2 24 10.8
2002-08-26 07:59:24 51°12.478 2°37.7 32.3 12.2 25.2 11
2002-08-26 07:59:31 51°12.5 2°37.715 30.3 12.2 23.9 11.3
2002-08-26 07:59:35 51°12.512 2°37.725 31.5 12.3 25.1 11.2
2002-08-26 07:59:40 51°12.528 2°37.736 30.7 12.2 24.2 11.3
2002-08-26 07:59:45 51°12.543 2°37.749 31.7 12.3 25.6 11.1
2002-08-26 07:59:50 51°12.559 2°37.759 31 12.3 24.5 11
2002-08-26 07:59:55 51°12.574 2°37.772 32.2 12.2 26.1 11.3
2002-08-26 08:00:00 51°12.589 2°37.782 32 12.3 25.4 11.3
2002-08-26 08:00:05 51°12.604 2°37.796 32.7 12.3 26.7 11.3
2002-08-26 08:00:10 51°12.62 2°37.807 32.8 12.2 26.4 11.3
2002-08-26 08:00:15 51°12.634 2°37.82 32.8 12.2 27.3 11.2
2002-08-26 08:00:20 51°12.65 2°37.831 32.8 12.3 26.3 11.5
2002-08-26 08:00:25 51°12.665 2°37.844 33.2 12.3 26.6 11.5
2002-08-26 08:00:30 51°12.68 2°37.856 33.2 12.3 26.7 11.5
2002-08-26 08:00:35 51°12.695 2°37.869 33.7 12.3 27.3 11.6
2002-08-26 08:00:40 51°12.71 2°37.881 33.8 12.3 27.5 11.6
2002-08-26 08:00:44 51°12.722 2°37.89 32.3 12.3 26.4 11.4
2002-08-26 08:00:51 51°12.744 2°37.908 33.5 12.2 27.1 11.5
2002-08-26 08:00:55 51°12.756 2°37.917 32.3 12.3 26.1 11.6
2002-08-26 08:01:00 51°12.771 2°37.93 34 12.2 27.6 11.7
2002-08-26 08:01:04 51°12.783 2°37.939 32 12.2 26.2 11.7
2002-08-26 08:01:10 51°12.801 2°37.954 33.8 12.2 27.2 11.9
2002-08-26 08:01:15 51°12.817 2°37.965 32.2 12.3 26.2 11.8
2002-08-26 08:01:20 51°12.832 2°37.979 34 12.3 27.6 11.7
2002-08-26 08:01:24 51°12.844 2°37.988 32.7 12.3 26.6 12
2002-08-26 08:01:30 51°12.862 2°38.003 33.7 12.3 27.4 11.9
2002-08-26 08:01:35 51°12.878 2°38.014 32.3 12.3 26.1 12.2
2002-08-26 08:01:40 51°12.893 2°38.027 33.7 12.3 27.5 12.2
2002-08-26 08:01:44 51°12.905 2°38.036 32.2 12.3 25.6 12.1
2002-08-26 08:01:50 51°12.924 2°38.051 34 12.4 27.7 12.1
2002-08-26 08:01:55 51°12.94 2°38.062 32 12.3 25.1 12.1
2002-08-26 08:02:00 51°12.954 2°38.075 34.2 12.3 27.3 12.2
2002-08-26 08:02:04 51°12.966 2°38.084 32.2 12.3 25.6 12.3
2002-08-26 08:02:10 51°12.984 2°38.1 34.3 12.2 27.4 12.4
2002-08-26 08:02:15 51°13 2°38.11 31.8 12.2 25.4 12.5
2002-08-26 08:02:20 51°13.015 2°38.123 33.3 12.2 26.9 12.4